sensor_id;sensor_type;location;lat;lon;timestamp;pressure;altitude;pressure_sealevel;temperature
40968;BMP280;57377;45.130;6.038;2022-10-30T00:02:10;93269.97;;;16.38
40968;BMP280;57377;45.130;6.038;2022-10-30T00:04:35;93262.16;;;16.63
40968;BMP280;57377;45.130;6.038;2022-10-30T00:07:01;93251.22;;;16.77
40968;BMP280;57377;45.130;6.038;2022-10-30T00:09:26;93253.59;;;16.96
40968;BMP280;57377;45.130;6.038;2022-10-30T00:11:51;93258.56;;;17.05
40968;BMP280;57377;45.130;6.038;2022-10-30T00:14:17;93264.41;;;16.86
40968;BMP280;57377;45.130;6.038;2022-10-30T00:16:42;93260.81;;;16.73
40968;BMP280;57377;45.130;6.038;2022-10-30T00:19:08;93264.31;;;16.61
40968;BMP280;57377;45.130;6.038;2022-10-30T00:21:33;93257.94;;;16.45
40968;BMP280;57377;45.130;6.038;2022-10-30T00:23:59;93247.78;;;16.52
40968;BMP280;57377;45.130;6.038;2022-10-30T00:26:24;93252.31;;;16.76
40968;BMP280;57377;45.130;6.038;2022-10-30T00:28:53;93251.31;;;16.47
40968;BMP280;57377;45.130;6.038;2022-10-30T00:31:20;93252.09;;;16.56
40968;BMP280;57377;45.130;6.038;2022-10-30T00:33:53;93251.69;;;16.71
40968;BMP280;57377;45.130;6.038;2022-10-30T00:36:19;93248.13;;;16.75
40968;BMP280;57377;45.130;6.038;2022-10-30T00:38:44;93245.06;;;16.82
40968;BMP280;57377;45.130;6.038;2022-10-30T00:41:18;93242.28;;;16.87
40968;BMP280;57377;45.130;6.038;2022-10-30T00:43:44;93243.56;;;16.42
40968;BMP280;57377;45.130;6.038;2022-10-30T00:46:35;93247.63;;;16.18
40968;BMP280;57377;45.130;6.038;2022-10-30T00:51:28;93246.84;;;16.18
40968;BMP280;57377;45.130;6.038;2022-10-30T00:53:55;93251.56;;;16.07
40968;BMP280;57377;45.130;6.038;2022-10-30T00:56:23;93248.09;;;16.20
40968;BMP280;57377;45.130;6.038;2022-10-30T00:58:52;93246.50;;;16.11
40968;BMP280;57377;45.130;6.038;2022-10-30T01:01:21;93238.63;;;16.11
40968;BMP280;57377;45.130;6.038;2022-10-30T01:03:51;93250.09;;;15.93
40968;BMP280;57377;45.130;6.038;2022-10-30T01:06:18;93241.81;;;16.08
40968;BMP280;57377;45.130;6.038;2022-10-30T01:08:44;93243.38;;;16.09
40968;BMP280;57377;45.130;6.038;2022-10-30T01:11:10;93241.72;;;15.91
40968;BMP280;57377;45.130;6.038;2022-10-30T01:14:02;93239.63;;;15.72
40968;BMP280;57377;45.130;6.038;2022-10-30T01:19:47;93235.44;;;15.71
40968;BMP280;57377;45.130;6.038;2022-10-30T01:25:02;93216.44;;;16.25
40968;BMP280;57377;45.130;6.038;2022-10-30T01:36:25;93228.69;;;16.08
40968;BMP280;57377;45.130;6.038;2022-10-30T01:38:58;93221.59;;;16.08
40968;BMP280;57377;45.130;6.038;2022-10-30T01:41:24;93227.41;;;15.97
40968;BMP280;57377;45.130;6.038;2022-10-30T01:43:54;93220.63;;;15.74
40968;BMP280;57377;45.130;6.038;2022-10-30T01:49:19;93214.66;;;16.04
40968;BMP280;57377;45.130;6.038;2022-10-30T01:51:59;93220.31;;;15.98
40968;BMP280;57377;45.130;6.038;2022-10-30T01:54:32;93208.41;;;16.22
40968;BMP280;57377;45.130;6.038;2022-10-30T01:57:17;93209.97;;;16.01
40968;BMP280;57377;45.130;6.038;2022-10-30T01:59:53;93207.81;;;16.03
40968;BMP280;57377;45.130;6.038;2022-10-30T02:02:19;93215.66;;;15.43
40968;BMP280;57377;45.130;6.038;2022-10-30T02:04:45;93206.00;;;15.73
40968;BMP280;57377;45.130;6.038;2022-10-30T02:07:10;93206.44;;;15.97
40968;BMP280;57377;45.130;6.038;2022-10-30T02:09:36;93207.22;;;16.06
40968;BMP280;57377;45.130;6.038;2022-10-30T02:12:02;93209.13;;;15.84
40968;BMP280;57377;45.130;6.038;2022-10-30T02:14:53;93204.59;;;16.06
40968;BMP280;57377;45.130;6.038;2022-10-30T02:17:20;93202.28;;;15.74
40968;BMP280;57377;45.130;6.038;2022-10-30T02:19:46;93206.28;;;15.72
40968;BMP280;57377;45.130;6.038;2022-10-30T02:22:11;93199.50;;;15.71
40968;BMP280;57377;45.130;6.038;2022-10-30T02:25:09;93194.69;;;15.95
40968;BMP280;57377;45.130;6.038;2022-10-30T02:27:45;93192.00;;;15.56
40968;BMP280;57377;45.130;6.038;2022-10-30T02:30:11;93200.78;;;15.52
40968;BMP280;57377;45.130;6.038;2022-10-30T02:32:36;93190.94;;;15.87
40968;BMP280;57377;45.130;6.038;2022-10-30T02:35:02;93197.03;;;15.74
40968;BMP280;57377;45.130;6.038;2022-10-30T02:37:28;93191.38;;;15.81
40968;BMP280;57377;45.130;6.038;2022-10-30T02:39:53;93196.63;;;15.89
40968;BMP280;57377;45.130;6.038;2022-10-30T02:42:18;93185.09;;;15.99
40968;BMP280;57377;45.130;6.038;2022-10-30T02:44:44;93190.34;;;15.99
40968;BMP280;57377;45.130;6.038;2022-10-30T02:47:09;93188.06;;;15.97
40968;BMP280;57377;45.130;6.038;2022-10-30T02:49:35;93180.88;;;16.11
40968;BMP280;57377;45.130;6.038;2022-10-30T02:52:00;93182.81;;;15.97
40968;BMP280;57377;45.130;6.038;2022-10-30T02:54:26;93183.06;;;16.17
40968;BMP280;57377;45.130;6.038;2022-10-30T02:56:51;93173.84;;;15.98
40968;BMP280;57377;45.130;6.038;2022-10-30T02:59:26;93183.88;;;15.66
40968;BMP280;57377;45.130;6.038;2022-10-30T03:01:51;93181.66;;;15.51
40968;BMP280;57377;45.130;6.038;2022-10-30T03:04:17;93172.41;;;15.54
40968;BMP280;57377;45.130;6.038;2022-10-30T03:06:42;93166.13;;;15.63
40968;BMP280;57377;45.130;6.038;2022-10-30T03:09:08;93178.47;;;15.41
40968;BMP280;57377;45.130;6.038;2022-10-30T03:11:33;93178.16;;;15.64
40968;BMP280;57377;45.130;6.038;2022-10-30T03:13:59;93181.38;;;15.61
40968;BMP280;57377;45.130;6.038;2022-10-30T03:16:26;93179.31;;;15.50
40968;BMP280;57377;45.130;6.038;2022-10-30T03:18:54;93180.22;;;15.75
40968;BMP280;57377;45.130;6.038;2022-10-30T03:21:22;93170.25;;;15.86
40968;BMP280;57377;45.130;6.038;2022-10-30T03:23:48;93178.09;;;15.77
40968;BMP280;57377;45.130;6.038;2022-10-30T03:26:17;93173.06;;;15.98
40968;BMP280;57377;45.130;6.038;2022-10-30T03:28:43;93172.50;;;16.09
40968;BMP280;57377;45.130;6.038;2022-10-30T03:31:11;93171.69;;;15.70
40968;BMP280;57377;45.130;6.038;2022-10-30T03:33:37;93176.66;;;15.72
40968;BMP280;57377;45.130;6.038;2022-10-30T03:36:04;93179.00;;;15.81
40968;BMP280;57377;45.130;6.038;2022-10-30T03:38:29;93179.53;;;15.92
40968;BMP280;57377;45.130;6.038;2022-10-30T03:40:55;93175.22;;;15.96
40968;BMP280;57377;45.130;6.038;2022-10-30T03:43:20;93178.84;;;15.78
40968;BMP280;57377;45.130;6.038;2022-10-30T03:45:48;93186.69;;;15.26
40968;BMP280;57377;45.130;6.038;2022-10-30T03:48:14;93181.69;;;15.60
40968;BMP280;57377;45.130;6.038;2022-10-30T03:50:40;93175.75;;;15.76
40968;BMP280;57377;45.130;6.038;2022-10-30T03:53:05;93173.41;;;15.74
40968;BMP280;57377;45.130;6.038;2022-10-30T03:55:30;93178.31;;;15.68
40968;BMP280;57377;45.130;6.038;2022-10-30T03:57:56;93172.50;;;15.71
40968;BMP280;57377;45.130;6.038;2022-10-30T04:00:21;93180.31;;;15.62
40968;BMP280;57377;45.130;6.038;2022-10-30T04:02:48;93180.63;;;15.61
40968;BMP280;57377;45.130;6.038;2022-10-30T04:05:15;93180.50;;;15.66
40968;BMP280;57377;45.130;6.038;2022-10-30T04:07:41;93181.88;;;15.63
40968;BMP280;57377;45.130;6.038;2022-10-30T04:10:06;93184.38;;;15.46
40968;BMP280;57377;45.130;6.038;2022-10-30T04:12:32;93186.50;;;15.66
40968;BMP280;57377;45.130;6.038;2022-10-30T04:14:57;93183.94;;;15.53
40968;BMP280;57377;45.130;6.038;2022-10-30T04:17:23;93186.78;;;15.65
40968;BMP280;57377;45.130;6.038;2022-10-30T04:19:48;93176.84;;;15.75
40968;BMP280;57377;45.130;6.038;2022-10-30T04:22:13;93178.34;;;15.46
40968;BMP280;57377;45.130;6.038;2022-10-30T04:24:39;93172.84;;;15.77
40968;BMP280;57377;45.130;6.038;2022-10-30T04:27:04;93175.03;;;15.54
40968;BMP280;57377;45.130;6.038;2022-10-30T04:29:30;93181.78;;;15.76
40968;BMP280;57377;45.130;6.038;2022-10-30T04:31:55;93180.13;;;15.59
40968;BMP280;57377;45.130;6.038;2022-10-30T04:34:20;93181.88;;;15.63
40968;BMP280;57377;45.130;6.038;2022-10-30T04:36:46;93178.34;;;15.46
40968;BMP280;57377;45.130;6.038;2022-10-30T04:39:11;93178.34;;;15.46
40968;BMP280;57377;45.130;6.038;2022-10-30T04:41:36;93174.31;;;15.70
40968;BMP280;57377;45.130;6.038;2022-10-30T04:44:02;93165.75;;;15.86
40968;BMP280;57377;45.130;6.038;2022-10-30T04:46:28;93179.69;;;15.95
40968;BMP280;57377;45.130;6.038;2022-10-30T04:48:53;93167.19;;;15.92
40968;BMP280;57377;45.130;6.038;2022-10-30T04:51:19;93171.34;;;15.93
40968;BMP280;57377;45.130;6.038;2022-10-30T04:53:44;93173.47;;;15.83
40968;BMP280;57377;45.130;6.038;2022-10-30T04:56:09;93168.25;;;15.91
40968;BMP280;57377;45.130;6.038;2022-10-30T04:58:35;93164.16;;;15.77
40968;BMP280;57377;45.130;6.038;2022-10-30T05:01:02;93164.22;;;15.85
40968;BMP280;57377;45.130;6.038;2022-10-30T05:03:28;93168.50;;;15.73
40968;BMP280;57377;45.130;6.038;2022-10-30T05:06:00;93159.25;;;15.75
40968;BMP280;57377;45.130;6.038;2022-10-30T05:08:26;93161.81;;;15.67
40968;BMP280;57377;45.130;6.038;2022-10-30T05:10:52;93158.13;;;15.68
40968;BMP280;57377;45.130;6.038;2022-10-30T05:13:17;93153.38;;;15.78
40968;BMP280;57377;45.130;6.038;2022-10-30T05:15:43;93157.09;;;15.77
40968;BMP280;57377;45.130;6.038;2022-10-30T05:18:08;93165.53;;;15.66
40968;BMP280;57377;45.130;6.038;2022-10-30T05:20:33;93160.94;;;15.50
40968;BMP280;57377;45.130;6.038;2022-10-30T05:22:59;93165.69;;;15.70
40968;BMP280;57377;45.130;6.038;2022-10-30T05:25:25;93159.84;;;15.73
40968;BMP280;57377;45.130;6.038;2022-10-30T05:27:59;93163.38;;;15.68
40968;BMP280;57377;45.130;6.038;2022-10-30T05:30:26;93159.50;;;15.66
40968;BMP280;57377;45.130;6.038;2022-10-30T05:32:59;93161.25;;;15.78
40968;BMP280;57377;45.130;6.038;2022-10-30T05:35:26;93166.44;;;15.40
40968;BMP280;57377;45.130;6.038;2022-10-30T05:37:51;93160.91;;;15.41
40968;BMP280;57377;45.130;6.038;2022-10-30T05:40:17;93162.28;;;15.69
40968;BMP280;57377;45.130;6.038;2022-10-30T05:42:46;93167.56;;;15.47
40968;BMP280;57377;45.130;6.038;2022-10-30T05:45:40;93159.56;;;15.52
40968;BMP280;57377;45.130;6.038;2022-10-30T05:48:08;93154.97;;;15.58
40968;BMP280;57377;45.130;6.038;2022-10-30T05:50:33;93151.63;;;15.66
40968;BMP280;57377;45.130;6.038;2022-10-30T05:53:01;93155.00;;;15.36
40968;BMP280;57377;45.130;6.038;2022-10-30T05:55:27;93157.69;;;15.44
40968;BMP280;57377;45.130;6.038;2022-10-30T05:57:57;93151.56;;;15.57
40968;BMP280;57377;45.130;6.038;2022-10-30T06:00:24;93163.47;;;15.33
40968;BMP280;57377;45.130;6.038;2022-10-30T06:02:49;93165.50;;;15.14
40968;BMP280;57377;45.130;6.038;2022-10-30T06:05:15;93156.94;;;15.22
40968;BMP280;57377;45.130;6.038;2022-10-30T06:07:40;93168.72;;;15.33
40968;BMP280;57377;45.130;6.038;2022-10-30T06:10:06;93160.84;;;15.33
40968;BMP280;57377;45.130;6.038;2022-10-30T06:12:31;93165.69;;;15.40
40968;BMP280;57377;45.130;6.038;2022-10-30T06:14:56;93164.47;;;15.45
40968;BMP280;57377;45.130;6.038;2022-10-30T06:17:22;93163.47;;;15.11
40968;BMP280;57377;45.130;6.038;2022-10-30T06:19:47;93162.97;;;15.31
40968;BMP280;57377;45.130;6.038;2022-10-30T06:22:13;93159.25;;;15.24
40968;BMP280;57377;45.130;6.038;2022-10-30T06:24:38;93163.09;;;15.48
40968;BMP280;57377;45.130;6.038;2022-10-30T06:27:03;93170.56;;;15.33
40968;BMP280;57377;45.130;6.038;2022-10-30T06:29:29;93161.84;;;15.24
40968;BMP280;57377;45.130;6.038;2022-10-30T06:31:54;93165.59;;;15.53
40968;BMP280;57377;45.130;6.038;2022-10-30T06:34:19;93165.22;;;15.46
40968;BMP280;57377;45.130;6.038;2022-10-30T06:36:45;93168.56;;;15.60
40968;BMP280;57377;45.130;6.038;2022-10-30T06:39:10;93172.16;;;15.72
40968;BMP280;57377;45.130;6.038;2022-10-30T06:41:36;93164.56;;;15.62
40968;BMP280;57377;45.130;6.038;2022-10-30T06:44:02;93163.13;;;15.78
40968;BMP280;57377;45.130;6.038;2022-10-30T06:46:27;93161.53;;;15.69
40968;BMP280;57377;45.130;6.038;2022-10-30T06:48:52;93168.34;;;15.48
40968;BMP280;57377;45.130;6.038;2022-10-30T06:51:23;93164.44;;;15.67
40968;BMP280;57377;45.130;6.038;2022-10-30T06:53:49;93173.53;;;15.70
40968;BMP280;57377;45.130;6.038;2022-10-30T06:56:14;93169.94;;;15.57
40968;BMP280;57377;45.130;6.038;2022-10-30T06:58:40;93168.50;;;15.73
40968;BMP280;57377;45.130;6.038;2022-10-30T07:01:05;93169.28;;;15.82
40968;BMP280;57377;45.130;6.038;2022-10-30T07:03:32;93175.41;;;15.99
40968;BMP280;57377;45.130;6.038;2022-10-30T07:05:58;93179.44;;;16.05
40968;BMP280;57377;45.130;6.038;2022-10-30T07:08:23;93175.84;;;16.01
40968;BMP280;57377;45.130;6.038;2022-10-30T07:10:49;93173.94;;;16.15
40968;BMP280;57377;45.130;6.038;2022-10-30T07:13:14;93171.78;;;16.17
40968;BMP280;57377;45.130;6.038;2022-10-30T07:15:39;93176.47;;;16.37
40968;BMP280;57377;45.130;6.038;2022-10-30T07:18:05;93169.88;;;16.47
40968;BMP280;57377;45.130;6.038;2022-10-30T07:20:33;93170.06;;;16.59
40968;BMP280;57377;45.130;6.038;2022-10-30T07:22:59;93178.22;;;16.58
40968;BMP280;57377;45.130;6.038;2022-10-30T07:25:24;93181.72;;;16.37
40968;BMP280;57377;45.130;6.038;2022-10-30T07:27:51;93177.94;;;16.59
40968;BMP280;57377;45.130;6.038;2022-10-30T07:30:18;93183.41;;;16.24
40968;BMP280;57377;45.130;6.038;2022-10-30T07:32:44;93180.13;;;16.19
40968;BMP280;57377;45.130;6.038;2022-10-30T07:35:11;93172.66;;;16.42
40968;BMP280;57377;45.130;6.038;2022-10-30T07:37:37;93181.28;;;16.43
40968;BMP280;57377;45.130;6.038;2022-10-30T07:40:04;93178.09;;;16.54
40968;BMP280;57377;45.130;6.038;2022-10-30T07:42:29;93178.13;;;16.71
40968;BMP280;57377;45.130;6.038;2022-10-30T07:44:55;93175.19;;;16.81
40968;BMP280;57377;45.130;6.038;2022-10-30T07:47:20;93182.28;;;16.72
40968;BMP280;57377;45.130;6.038;2022-10-30T07:49:45;93177.78;;;16.64
40968;BMP280;57377;45.130;6.038;2022-10-30T07:52:11;93184.00;;;16.76
40968;BMP280;57377;45.130;6.038;2022-10-30T07:54:36;93179.19;;;16.70
40968;BMP280;57377;45.130;6.038;2022-10-30T07:57:02;93175.16;;;16.64
40968;BMP280;57377;45.130;6.038;2022-10-30T07:59:27;93175.03;;;16.86
40968;BMP280;57377;45.130;6.038;2022-10-30T08:01:55;93178.91;;;16.97
40968;BMP280;57377;45.130;6.038;2022-10-30T08:04:21;93181.69;;;17.08
40968;BMP280;57377;45.130;6.038;2022-10-30T08:06:46;93181.53;;;16.97
40968;BMP280;57377;45.130;6.038;2022-10-30T08:09:11;93176.41;;;16.92
40968;BMP280;57377;45.130;6.038;2022-10-30T08:11:37;93184.94;;;17.05
40968;BMP280;57377;45.130;6.038;2022-10-30T08:14:02;93176.88;;;16.94
40968;BMP280;57377;45.130;6.038;2022-10-30T08:16:28;93181.53;;;17.05
40968;BMP280;57377;45.130;6.038;2022-10-30T08:18:53;93181.34;;;16.85
40968;BMP280;57377;45.130;6.038;2022-10-30T08:21:19;93171.78;;;16.97
40968;BMP280;57377;45.130;6.038;2022-10-30T08:23:44;93169.03;;;17.19
40968;BMP280;57377;45.130;6.038;2022-10-30T08:26:10;93167.19;;;17.36
40968;BMP280;57377;45.130;6.038;2022-10-30T08:28:35;93159.59;;;17.18
40968;BMP280;57377;45.130;6.038;2022-10-30T08:31:01;93162.53;;;17.25
40968;BMP280;57377;45.130;6.038;2022-10-30T08:33:27;93168.09;;;17.40
40968;BMP280;57377;45.130;6.038;2022-10-30T08:35:55;93169.78;;;17.02
40968;BMP280;57377;45.130;6.038;2022-10-30T08:38:21;93166.22;;;16.99
40968;BMP280;57377;45.130;6.038;2022-10-30T08:40:46;93164.56;;;17.19
40968;BMP280;57377;45.130;6.038;2022-10-30T08:43:12;93171.22;;;17.17
40968;BMP280;57377;45.130;6.038;2022-10-30T08:45:39;93170.88;;;17.43
40968;BMP280;57377;45.130;6.038;2022-10-30T08:48:05;93177.47;;;17.74
40968;BMP280;57377;45.130;6.038;2022-10-30T08:50:31;93167.41;;;18.22
40968;BMP280;57377;45.130;6.038;2022-10-30T08:53:04;93167.31;;;18.75
40968;BMP280;57377;45.130;6.038;2022-10-30T08:55:33;93162.19;;;18.99
40968;BMP280;57377;45.130;6.038;2022-10-30T08:57:59;93160.41;;;19.75
40968;BMP280;57377;45.130;6.038;2022-10-30T09:00:25;93153.94;;;20.28
40968;BMP280;57377;45.130;6.038;2022-10-30T09:02:50;93146.81;;;20.64
40968;BMP280;57377;45.130;6.038;2022-10-30T09:05:16;93149.28;;;21.47
40968;BMP280;57377;45.130;6.038;2022-10-30T09:07:42;93146.25;;;22.03
40968;BMP280;57377;45.130;6.038;2022-10-30T09:10:07;93147.34;;;22.14
40968;BMP280;57377;45.130;6.038;2022-10-30T09:12:33;93148.06;;;22.45
40968;BMP280;57377;45.130;6.038;2022-10-30T09:14:58;93153.72;;;22.58
40968;BMP280;57377;45.130;6.038;2022-10-30T09:17:24;93136.25;;;22.73
40968;BMP280;57377;45.130;6.038;2022-10-30T09:19:50;93139.69;;;22.88
40968;BMP280;57377;45.130;6.038;2022-10-30T09:22:15;93144.19;;;23.03
40968;BMP280;57377;45.130;6.038;2022-10-30T09:24:40;93139.94;;;23.17
40968;BMP280;57377;45.130;6.038;2022-10-30T09:27:06;93140.00;;;23.21
40968;BMP280;57377;45.130;6.038;2022-10-30T09:29:32;93133.94;;;23.20
40968;BMP280;57377;45.130;6.038;2022-10-30T09:31:58;93132.31;;;23.16
40968;BMP280;57377;45.130;6.038;2022-10-30T09:34:24;93131.72;;;22.88
40968;BMP280;57377;45.130;6.038;2022-10-30T09:36:50;93135.34;;;21.77
40968;BMP280;57377;45.130;6.038;2022-10-30T09:39:16;93125.88;;;22.34
40968;BMP280;57377;45.130;6.038;2022-10-30T09:50:24;93130.09;;;21.92
40968;BMP280;57377;45.130;6.038;2022-10-30T09:55:29;93139.25;;;21.02
40968;BMP280;57377;45.130;6.038;2022-10-30T10:00:45;93133.03;;;20.71
40968;BMP280;57377;45.130;6.038;2022-10-30T10:05:58;93134.13;;;20.23
40968;BMP280;57377;45.130;6.038;2022-10-30T10:08:35;93131.47;;;20.23
40968;BMP280;57377;45.130;6.038;2022-10-30T10:11:07;93133.22;;;20.19
40968;BMP280;57377;45.130;6.038;2022-10-30T10:16:20;93126.88;;;20.43
40968;BMP280;57377;45.130;6.038;2022-10-30T10:19:03;93126.19;;;20.11
40968;BMP280;57377;45.130;6.038;2022-10-30T10:21:34;93120.78;;;20.55
40968;BMP280;57377;45.130;6.038;2022-10-30T10:24:02;93118.06;;;20.75
40968;BMP280;57377;45.130;6.038;2022-10-30T10:29:28;93113.84;;;20.74
40968;BMP280;57377;45.130;6.038;2022-10-30T10:50:59;93096.13;;;21.13
40968;BMP280;57377;45.130;6.038;2022-10-30T10:56:06;93089.44;;;21.04
40968;BMP280;57377;45.130;6.038;2022-10-30T10:58:50;93088.66;;;21.03
40968;BMP280;57377;45.130;6.038;2022-10-30T11:01:23;93085.06;;;21.23
40968;BMP280;57377;45.130;6.038;2022-10-30T11:04:03;93083.69;;;21.29
40968;BMP280;57377;45.130;6.038;2022-10-30T11:06:35;93090.78;;;21.37
40968;BMP280;57377;45.130;6.038;2022-10-30T11:09:15;93086.59;;;21.24
40968;BMP280;57377;45.130;6.038;2022-10-30T11:11:42;93086.75;;;21.16
40968;BMP280;57377;45.130;6.038;2022-10-30T11:14:18;93081.28;;;21.24
40968;BMP280;57377;45.130;6.038;2022-10-30T11:19:21;93076.09;;;21.27
40968;BMP280;57377;45.130;6.038;2022-10-30T11:21:54;93076.31;;;21.34
40968;BMP280;57377;45.130;6.038;2022-10-30T11:24:31;93077.44;;;21.49
40968;BMP280;57377;45.130;6.038;2022-10-30T11:27:14;93068.31;;;21.46
40968;BMP280;57377;45.130;6.038;2022-10-30T11:29:48;93065.03;;;21.64
40968;BMP280;57377;45.130;6.038;2022-10-30T11:32:18;93059.22;;;21.74
40968;BMP280;57377;45.130;6.038;2022-10-30T11:37:35;93056.47;;;21.55
40968;BMP280;57377;45.130;6.038;2022-10-30T11:40:14;93052.41;;;21.73
40968;BMP280;57377;45.130;6.038;2022-10-30T11:42:57;93050.31;;;21.82
40968;BMP280;57377;45.130;6.038;2022-10-30T11:45:36;93046.75;;;21.90
40968;BMP280;57377;45.130;6.038;2022-10-30T11:48:08;93053.00;;;21.97
40968;BMP280;57377;45.130;6.038;2022-10-30T11:50:34;93045.38;;;21.96
40968;BMP280;57377;45.130;6.038;2022-10-30T11:53:02;93042.44;;;21.40
40968;BMP280;57377;45.130;6.038;2022-10-30T11:55:39;93042.81;;;21.54
40968;BMP280;57377;45.130;6.038;2022-10-30T11:58:06;93048.69;;;21.20
40968;BMP280;57377;45.130;6.038;2022-10-30T12:00:36;93041.25;;;21.53
40968;BMP280;57377;45.130;6.038;2022-10-30T12:03:02;93040.22;;;21.42
40968;BMP280;57377;45.130;6.038;2022-10-30T12:05:37;93043.06;;;21.64
40968;BMP280;57377;45.130;6.038;2022-10-30T12:10:33;93020.50;;;22.00
40968;BMP280;57377;45.130;6.038;2022-10-30T12:13:04;93031.13;;;21.85
40968;BMP280;57377;45.130;6.038;2022-10-30T12:15:35;93022.03;;;22.01
40968;BMP280;57377;45.130;6.038;2022-10-30T12:18:05;93020.88;;;22.14
40968;BMP280;57377;45.130;6.038;2022-10-30T12:20:35;93028.34;;;22.27
40968;BMP280;57377;45.130;6.038;2022-10-30T12:23:27;93011.34;;;22.28
40968;BMP280;57377;45.130;6.038;2022-10-30T12:25:56;93009.81;;;22.27
40968;BMP280;57377;45.130;6.038;2022-10-30T12:28:30;93002.72;;;22.31
40968;BMP280;57377;45.130;6.038;2022-10-30T12:31:08;93014.94;;;22.36
40968;BMP280;57377;45.130;6.038;2022-10-30T12:33:42;93007.53;;;21.80
40968;BMP280;57377;45.130;6.038;2022-10-30T12:36:13;92997.25;;;22.09
40968;BMP280;57377;45.130;6.038;2022-10-30T12:41:28;92998.16;;;22.32
40968;BMP280;57377;45.130;6.038;2022-10-30T12:44:03;92993.78;;;22.39
40968;BMP280;57377;45.130;6.038;2022-10-30T12:49:30;92982.47;;;22.42
40968;BMP280;57377;45.130;6.038;2022-10-30T12:57:35;92988.72;;;22.50
40968;BMP280;57377;45.130;6.038;2022-10-30T13:00:15;92982.34;;;22.54
40968;BMP280;57377;45.130;6.038;2022-10-30T13:08:06;92981.22;;;22.36
40968;BMP280;57377;45.130;6.038;2022-10-30T13:10:45;92973.00;;;22.41
40968;BMP280;57377;45.130;6.038;2022-10-30T13:13:18;92970.06;;;22.46
40968;BMP280;57377;45.130;6.038;2022-10-30T13:15:48;92963.66;;;22.66
40968;BMP280;57377;45.130;6.038;2022-10-30T13:18:17;92963.53;;;22.78
40968;BMP280;57377;45.130;6.038;2022-10-30T13:20:51;92958.72;;;22.83
40968;BMP280;57377;45.130;6.038;2022-10-30T13:23:25;92968.00;;;22.92
40968;BMP280;57377;45.130;6.038;2022-10-30T13:26:06;92961.44;;;22.68
40968;BMP280;57377;45.130;6.038;2022-10-30T13:28:38;92950.16;;;22.89
40968;BMP280;57377;45.130;6.038;2022-10-30T13:31:17;92952.09;;;22.92
40968;BMP280;57377;45.130;6.038;2022-10-30T13:34:00;92954.19;;;22.65
40968;BMP280;57377;45.130;6.038;2022-10-30T13:36:47;92957.16;;;22.45
40968;BMP280;57377;45.130;6.038;2022-10-30T13:39:45;92957.13;;;22.79
40968;BMP280;57377;45.130;6.038;2022-10-30T13:42:49;92952.09;;;22.55
40968;BMP280;57377;45.130;6.038;2022-10-30T13:51:28;92944.81;;;22.71
40968;BMP280;57377;45.130;6.038;2022-10-30T13:56:32;92939.69;;;22.25
40968;BMP280;57377;45.130;6.038;2022-10-30T13:59:22;92944.97;;;22.40
40968;BMP280;57377;45.130;6.038;2022-10-30T14:07:34;92945.34;;;22.08
40968;BMP280;57377;45.130;6.038;2022-10-30T14:10:09;92949.22;;;22.11
40968;BMP280;57377;45.130;6.038;2022-10-30T14:13:04;92940.66;;;22.17
40968;BMP280;57377;45.130;6.038;2022-10-30T14:15:33;92943.16;;;21.95
40968;BMP280;57377;45.130;6.038;2022-10-30T14:20:38;92944.69;;;21.96
40968;BMP280;57377;45.130;6.038;2022-10-30T14:23:16;92935.56;;;21.93
40968;BMP280;57377;45.130;6.038;2022-10-30T14:25:44;92939.75;;;21.79
40968;BMP280;57377;45.130;6.038;2022-10-30T14:28:30;92934.66;;;21.71
40968;BMP280;57377;45.130;6.038;2022-10-30T14:31:12;92935.50;;;21.59
40968;BMP280;57377;45.130;6.038;2022-10-30T14:33:54;92930.03;;;21.53
40968;BMP280;57377;45.130;6.038;2022-10-30T14:36:48;92935.34;;;21.53
40968;BMP280;57377;45.130;6.038;2022-10-30T14:42:09;92932.16;;;21.62
40968;BMP280;57377;45.130;6.038;2022-10-30T14:47:50;92937.94;;;21.07
40968;BMP280;57377;45.130;6.038;2022-10-30T14:56:34;92939.13;;;21.09
40968;BMP280;57377;45.130;6.038;2022-10-30T15:07:07;92942.59;;;20.83
40968;BMP280;57377;45.130;6.038;2022-10-30T15:14:43;92953.13;;;20.56
40968;BMP280;57377;45.130;6.038;2022-10-30T15:19:48;92952.25;;;20.25
40968;BMP280;57377;45.130;6.038;2022-10-30T15:22:19;92957.09;;;20.11
40968;BMP280;57377;45.130;6.038;2022-10-30T15:24:46;92955.13;;;20.08
40968;BMP280;57377;45.130;6.038;2022-10-30T15:27:17;92955.59;;;19.86
40968;BMP280;57377;45.130;6.038;2022-10-30T15:29:52;92956.69;;;19.97
40968;BMP280;57377;45.130;6.038;2022-10-30T15:32:22;92971.75;;;19.73
40968;BMP280;57377;45.130;6.038;2022-10-30T15:35:00;92969.91;;;19.85
40968;BMP280;57377;45.130;6.038;2022-10-30T15:37:27;92973.19;;;19.82
40968;BMP280;57377;45.130;6.038;2022-10-30T15:40:19;92972.09;;;19.60
40968;BMP280;57377;45.130;6.038;2022-10-30T15:42:46;92970.03;;;19.77
40968;BMP280;57377;45.130;6.038;2022-10-30T15:45:22;92972.84;;;19.60
40968;BMP280;57377;45.130;6.038;2022-10-30T15:48:00;92973.06;;;19.55
40968;BMP280;57377;45.130;6.038;2022-10-30T15:50:28;92972.41;;;19.46
40968;BMP280;57377;45.130;6.038;2022-10-30T15:52:54;92980.22;;;19.55
40968;BMP280;57377;45.130;6.038;2022-10-30T15:55:27;92969.00;;;19.46
40968;BMP280;57377;45.130;6.038;2022-10-30T15:57:54;92962.06;;;19.53
40968;BMP280;57377;45.130;6.038;2022-10-30T16:00:26;92977.75;;;19.26
40968;BMP280;57377;45.130;6.038;2022-10-30T16:05:28;92975.13;;;19.26
40968;BMP280;57377;45.130;6.038;2022-10-30T16:07:57;92983.03;;;19.26
40968;BMP280;57377;45.130;6.038;2022-10-30T16:10:24;92984.34;;;19.32
40968;BMP280;57377;45.130;6.038;2022-10-30T16:12:50;92977.97;;;18.89
40968;BMP280;57377;45.130;6.038;2022-10-30T16:15:30;92993.50;;;18.70
40968;BMP280;57377;45.130;6.038;2022-10-30T16:18:06;92996.72;;;18.76
40968;BMP280;57377;45.130;6.038;2022-10-30T16:20:34;92983.31;;;18.81
40968;BMP280;57377;45.130;6.038;2022-10-30T16:23:01;92996.66;;;18.64
40968;BMP280;57377;45.130;6.038;2022-10-30T16:25:27;93000.09;;;18.44
40968;BMP280;57377;45.130;6.038;2022-10-30T16:27:53;92992.44;;;18.51
40968;BMP280;57377;45.130;6.038;2022-10-30T16:30:18;92999.59;;;18.63
40968;BMP280;57377;45.130;6.038;2022-10-30T16:32:49;93002.72;;;18.44
40968;BMP280;57377;45.130;6.038;2022-10-30T16:35:18;93001.16;;;18.23
40968;BMP280;57377;45.130;6.038;2022-10-30T16:37:45;93009.91;;;18.35